createdAt,value
2018-03-14T00:20:34.844Z,44.17
2018-03-14T00:23:22.002Z,46.03
2018-03-14T00:25:49.591Z,59.05
2018-03-14T00:28:17.917Z,52.17
2018-03-14T00:30:45.485Z,52.15
2018-03-14T00:33:13.049Z,56.83
2018-03-14T00:35:40.645Z,56.90
2018-03-14T00:38:09.016Z,43.13
2018-03-14T00:40:36.597Z,30.17
2018-03-14T00:43:04.976Z,22.73
2018-03-14T00:45:34.113Z,31.33
2018-03-14T00:48:01.674Z,33.15
2018-03-14T00:50:29.233Z,26.40
2018-03-14T00:52:57.083Z,31.10
2018-03-14T00:55:24.653Z,28.90
2018-03-14T00:57:52.224Z,26.35
2018-03-14T01:00:19.795Z,27.77
2018-03-14T01:02:47.347Z,27.87
2018-03-14T01:05:14.914Z,28.90
2018-03-14T01:07:43.289Z,24.20
2018-03-14T01:10:10.847Z,23.70
2018-03-14T01:12:38.443Z,20.60
2018-03-14T01:20:54.150Z,21.15
2018-03-14T02:18:08.777Z,22.80
2018-03-14T08:17:26.420Z,8.03
2018-03-14T08:19:53.972Z,7.47
2018-03-14T10:20:43.588Z,23.60
2018-03-14T11:23:35.659Z,17.00
2018-03-14T11:26:03.255Z,17.27
2018-03-14T11:28:30.845Z,21.67
2018-03-14T11:30:58.376Z,18.33
2018-03-14T11:33:25.918Z,19.90
2018-03-14T11:35:54.933Z,16.43
2018-03-14T11:38:22.474Z,22.37
2018-03-14T11:40:50.828Z,18.90
2018-03-14T11:43:18.372Z,20.03
2018-03-14T11:45:46.013Z,20.10
2018-03-14T11:48:13.549Z,19.67
2018-03-14T11:50:41.092Z,17.77
2018-03-14T11:53:09.417Z,19.50
2018-03-14T11:55:36.954Z,22.13
2018-03-14T11:58:04.635Z,20.53
2018-03-14T12:00:32.194Z,18.97
2018-03-14T12:02:59.736Z,21.40
2018-03-14T12:05:27.274Z,19.07
2018-03-14T12:07:55.573Z,18.77
2018-03-14T12:10:23.104Z,18.33
2018-03-14T12:21:31.795Z,21.80
2018-03-14T12:24:00.089Z,21.53
2018-03-14T12:26:27.629Z,18.80
2018-03-14T12:28:55.923Z,21.40
2018-03-14T12:31:23.469Z,17.93
2018-03-14T12:33:51.771Z,18.93
2018-03-14T12:36:19.317Z,17.43
2018-03-14T12:38:48.340Z,22.37
2018-03-14T12:41:15.877Z,21.10
2018-03-14T12:43:43.460Z,20.87
2018-03-14T12:46:11.000Z,24.70
2018-03-14T12:48:38.638Z,20.80
2018-03-14T12:51:06.993Z,23.17
2018-03-14T12:53:34.532Z,21.87
2018-03-14T12:56:02.109Z,23.00
2018-03-14T12:58:29.639Z,21.20
2018-03-14T13:00:57.191Z,33.63
2018-03-14T13:03:24.739Z,26.70
2018-03-14T13:05:52.356Z,20.80
2018-03-14T13:08:19.896Z,16.03
2018-03-14T13:10:47.432Z,14.20
2018-03-14T14:28:27.362Z,13.53
2018-03-14T14:30:55.668Z,17.80
2018-03-14T14:33:23.230Z,16.47
2018-03-14T14:35:50.755Z,13.90
2018-03-14T14:38:18.280Z,15.93
2018-03-14T14:40:45.836Z,16.80
2018-03-14T14:43:13.390Z,15.43
2018-03-14T14:45:41.059Z,13.80
2018-03-14T14:48:08.709Z,13.23
2018-03-14T14:50:36.240Z,11.13
2018-03-14T14:53:03.824Z,8.87
2018-03-14T14:55:31.412Z,10.43
2018-03-14T14:57:59.036Z,13.47
2018-03-14T15:00:26.590Z,11.30
2018-03-14T15:02:54.353Z,13.20
2018-03-14T15:05:21.900Z,9.57
2018-03-14T15:07:50.231Z,11.77
2018-03-14T15:10:17.775Z,10.40
2018-03-14T15:24:37.821Z,12.23
2018-03-14T15:27:05.348Z,9.27
2018-03-14T15:29:33.673Z,11.50
2018-03-14T15:32:01.267Z,9.40
2018-03-14T15:34:28.914Z,11.13
2018-03-14T15:36:56.457Z,9.80
2018-03-14T15:39:24.001Z,11.57
2018-03-14T15:41:51.608Z,10.13
2018-03-14T15:44:19.136Z,12.90
2018-03-14T15:46:46.689Z,11.17
2018-03-14T15:49:14.260Z,13.33
2018-03-14T15:51:41.788Z,10.20
2018-03-14T15:54:09.338Z,13.73
2018-03-14T15:56:37.636Z,12.37
2018-03-14T15:59:05.236Z,15.77
2018-03-14T16:01:32.768Z,13.13
2018-03-14T16:04:00.312Z,11.83
2018-03-14T16:06:27.876Z,11.53
2018-03-14T16:08:55.430Z,11.20
2018-03-14T16:11:22.972Z,11.80
2018-03-14T16:13:51.301Z,11.67
2018-03-14T17:13:52.141Z,17.03
2018-03-14T17:16:19.685Z,17.57
2018-03-14T21:29:11.890Z,16.37
2018-03-14T21:31:40.895Z,13.17
2018-03-14T21:34:08.805Z,14.00
2018-03-14T21:36:36.402Z,16.43
2018-03-14T21:39:08.216Z,17.63
2018-03-14T21:41:37.721Z,13.70
2018-03-14T21:44:05.378Z,16.53
2018-03-14T21:46:34.503Z,14.27
2018-03-14T21:49:02.047Z,16.50
2018-03-14T21:51:29.602Z,15.63
2018-03-14T21:53:57.941Z,14.10
2018-03-14T21:56:25.895Z,12.83
2018-03-14T21:58:55.410Z,15.98
2018-03-14T22:01:22.947Z,13.47
2018-03-14T22:03:51.921Z,15.20
2018-03-14T22:06:20.052Z,13.37
2018-03-14T22:08:47.674Z,11.70
2018-03-14T22:11:17.146Z,12.77
2018-03-14T22:13:45.860Z,13.27
2018-03-14T22:16:13.418Z,15.32
2018-03-14T22:18:41.918Z,13.00
2018-03-14T22:21:10.863Z,14.73
2018-03-14T23:12:51.045Z,12.95
2018-03-14T23:18:11.817Z,12.55
